sensor_id;sensor_type;location;lat;lon;timestamp;P1;durP1;ratioP1;P2;durP2;ratioP2
75417;SDS011;63997;52.112;5.420;2023-05-07T00:02:16;8.35;;;6.55;;
75417;SDS011;63997;52.112;5.420;2023-05-07T00:04:42;8.00;;;6.47;;
75417;SDS011;63997;52.112;5.420;2023-05-07T00:07:10;8.00;;;7.30;;
75417;SDS011;63997;52.112;5.420;2023-05-07T00:09:36;8.10;;;6.83;;
75417;SDS011;63997;52.112;5.420;2023-05-07T00:12:03;6.65;;;6.03;;
75417;SDS011;63997;52.112;5.420;2023-05-07T00:14:29;8.88;;;7.45;;
75417;SDS011;63997;52.112;5.420;2023-05-07T00:16:56;7.90;;;7.10;;
75417;SDS011;63997;52.112;5.420;2023-05-07T00:19:23;8.20;;;7.40;;
75417;SDS011;63997;52.112;5.420;2023-05-07T00:21:50;7.00;;;6.40;;
75417;SDS011;63997;52.112;5.420;2023-05-07T00:24:16;7.05;;;6.35;;
75417;SDS011;63997;52.112;5.420;2023-05-07T00:26:44;7.60;;;6.80;;
75417;SDS011;63997;52.112;5.420;2023-05-07T00:29:10;7.15;;;5.90;;
75417;SDS011;63997;52.112;5.420;2023-05-07T00:31:36;6.30;;;5.70;;
75417;SDS011;63997;52.112;5.420;2023-05-07T00:34:03;7.83;;;5.87;;
75417;SDS011;63997;52.112;5.420;2023-05-07T00:36:29;6.93;;;6.32;;
75417;SDS011;63997;52.112;5.420;2023-05-07T00:38:57;7.05;;;6.07;;
75417;SDS011;63997;52.112;5.420;2023-05-07T00:41:26;7.07;;;6.20;;
75417;SDS011;63997;52.112;5.420;2023-05-07T00:43:52;7.15;;;6.45;;
75417;SDS011;63997;52.112;5.420;2023-05-07T00:46:20;8.80;;;6.37;;
75417;SDS011;63997;52.112;5.420;2023-05-07T00:48:47;7.75;;;6.97;;
75417;SDS011;63997;52.112;5.420;2023-05-07T00:51:14;8.98;;;6.20;;
75417;SDS011;63997;52.112;5.420;2023-05-07T00:53:41;7.03;;;6.15;;
75417;SDS011;63997;52.112;5.420;2023-05-07T00:56:07;8.20;;;6.10;;
75417;SDS011;63997;52.112;5.420;2023-05-07T00:58:34;6.53;;;6.00;;
75417;SDS011;63997;52.112;5.420;2023-05-07T01:01:01;7.50;;;6.03;;
75417;SDS011;63997;52.112;5.420;2023-05-07T01:03:28;6.85;;;6.25;;
75417;SDS011;63997;52.112;5.420;2023-05-07T01:05:54;6.25;;;5.65;;
75417;SDS011;63997;52.112;5.420;2023-05-07T01:08:24;6.93;;;6.22;;
75417;SDS011;63997;52.112;5.420;2023-05-07T01:10:52;6.83;;;5.73;;
75417;SDS011;63997;52.112;5.420;2023-05-07T01:13:19;7.07;;;6.43;;
75417;SDS011;63997;52.112;5.420;2023-05-07T01:15:46;5.93;;;5.32;;
75417;SDS011;63997;52.112;5.420;2023-05-07T01:18:13;6.20;;;5.60;;
75417;SDS011;63997;52.112;5.420;2023-05-07T01:20:40;6.32;;;4.72;;
75417;SDS011;63997;52.112;5.420;2023-05-07T01:23:07;3.77;;;3.47;;
75417;SDS011;63997;52.112;5.420;2023-05-07T01:25:34;4.88;;;4.43;;
75417;SDS011;63997;52.112;5.420;2023-05-07T01:28:01;5.90;;;5.40;;
75417;SDS011;63997;52.112;5.420;2023-05-07T01:30:28;6.72;;;6.03;;
75417;SDS011;63997;52.112;5.420;2023-05-07T01:33:01;6.20;;;5.68;;
75417;SDS011;63997;52.112;5.420;2023-05-07T01:35:34;8.53;;;5.77;;
75417;SDS011;63997;52.112;5.420;2023-05-07T01:38:04;8.40;;;5.82;;
75417;SDS011;63997;52.112;5.420;2023-05-07T01:40:32;8.30;;;5.80;;
75417;SDS011;63997;52.112;5.420;2023-05-07T01:43:01;6.40;;;5.80;;
75417;SDS011;63997;52.112;5.420;2023-05-07T01:45:29;7.13;;;5.57;;
75417;SDS011;63997;52.112;5.420;2023-05-07T01:47:56;7.60;;;6.03;;
75417;SDS011;63997;52.112;5.420;2023-05-07T01:50:24;5.97;;;5.35;;
75417;SDS011;63997;52.112;5.420;2023-05-07T01:52:51;6.53;;;5.93;;
75417;SDS011;63997;52.112;5.420;2023-05-07T01:55:18;5.85;;;5.30;;
75417;SDS011;63997;52.112;5.420;2023-05-07T01:57:45;7.60;;;6.53;;
75417;SDS011;63997;52.112;5.420;2023-05-07T02:00:11;7.87;;;6.53;;
75417;SDS011;63997;52.112;5.420;2023-05-07T02:02:38;9.68;;;7.25;;
75417;SDS011;63997;52.112;5.420;2023-05-07T02:05:05;7.68;;;6.70;;
75417;SDS011;63997;52.112;5.420;2023-05-07T02:07:32;6.78;;;6.07;;
75417;SDS011;63997;52.112;5.420;2023-05-07T02:09:58;6.40;;;5.80;;
75417;SDS011;63997;52.112;5.420;2023-05-07T02:12:25;5.53;;;5.13;;
75417;SDS011;63997;52.112;5.420;2023-05-07T02:14:51;6.45;;;4.88;;
75417;SDS011;63997;52.112;5.420;2023-05-07T02:17:17;5.50;;;5.10;;
75417;SDS011;63997;52.112;5.420;2023-05-07T02:19:44;6.30;;;5.70;;
75417;SDS011;63997;52.112;5.420;2023-05-07T02:22:10;6.60;;;6.10;;
75417;SDS011;63997;52.112;5.420;2023-05-07T02:24:36;7.50;;;6.80;;
75417;SDS011;63997;52.112;5.420;2023-05-07T02:27:03;7.50;;;6.35;;
75417;SDS011;63997;52.112;5.420;2023-05-07T02:29:29;7.93;;;7.13;;
75417;SDS011;63997;52.112;5.420;2023-05-07T02:31:56;8.07;;;6.30;;
75417;SDS011;63997;52.112;5.420;2023-05-07T02:34:22;8.45;;;7.32;;
75417;SDS011;63997;52.112;5.420;2023-05-07T02:36:49;7.13;;;6.43;;
75417;SDS011;63997;52.112;5.420;2023-05-07T02:39:16;7.88;;;6.68;;
75417;SDS011;63997;52.112;5.420;2023-05-07T02:41:42;7.53;;;6.47;;
75417;SDS011;63997;52.112;5.420;2023-05-07T02:44:09;10.90;;;7.47;;
75417;SDS011;63997;52.112;5.420;2023-05-07T02:46:35;9.25;;;7.40;;
75417;SDS011;63997;52.112;5.420;2023-05-07T02:49:02;8.40;;;7.57;;
75417;SDS011;63997;52.112;5.420;2023-05-07T02:51:29;10.15;;;7.65;;
75417;SDS011;63997;52.112;5.420;2023-05-07T02:53:56;9.30;;;7.38;;
75417;SDS011;63997;52.112;5.420;2023-05-07T02:56:26;8.27;;;7.20;;
75417;SDS011;63997;52.112;5.420;2023-05-07T02:58:52;7.28;;;6.57;;
75417;SDS011;63997;52.112;5.420;2023-05-07T03:01:19;7.13;;;6.43;;
75417;SDS011;63997;52.112;5.420;2023-05-07T03:03:47;9.57;;;7.32;;
75417;SDS011;63997;52.112;5.420;2023-05-07T03:06:13;7.72;;;6.97;;
75417;SDS011;63997;52.112;5.420;2023-05-07T03:08:40;10.23;;;6.93;;
75417;SDS011;63997;52.112;5.420;2023-05-07T03:11:06;9.70;;;7.13;;
75417;SDS011;63997;52.112;5.420;2023-05-07T03:13:33;9.13;;;7.80;;
75417;SDS011;63997;52.112;5.420;2023-05-07T03:15:59;7.45;;;6.80;;
75417;SDS011;63997;52.112;5.420;2023-05-07T03:18:26;9.00;;;7.97;;
75417;SDS011;63997;52.112;5.420;2023-05-07T03:20:52;7.55;;;6.85;;
75417;SDS011;63997;52.112;5.420;2023-05-07T03:23:19;7.63;;;6.68;;
75417;SDS011;63997;52.112;5.420;2023-05-07T03:25:47;9.87;;;7.30;;
75417;SDS011;63997;52.112;5.420;2023-05-07T03:28:14;8.80;;;7.80;;
75417;SDS011;63997;52.112;5.420;2023-05-07T03:30:40;8.50;;;7.22;;
75417;SDS011;63997;52.112;5.420;2023-05-07T03:33:07;8.25;;;7.43;;
75417;SDS011;63997;52.112;5.420;2023-05-07T03:35:33;8.15;;;7.35;;
75417;SDS011;63997;52.112;5.420;2023-05-07T03:38:01;9.33;;;7.33;;
75417;SDS011;63997;52.112;5.420;2023-05-07T03:40:27;8.10;;;6.95;;
75417;SDS011;63997;52.112;5.420;2023-05-07T03:42:54;10.57;;;7.63;;
75417;SDS011;63997;52.112;5.420;2023-05-07T03:45:21;8.13;;;7.03;;
75417;SDS011;63997;52.112;5.420;2023-05-07T03:47:47;8.35;;;7.05;;
75417;SDS011;63997;52.112;5.420;2023-05-07T03:50:14;10.23;;;7.90;;
75417;SDS011;63997;52.112;5.420;2023-05-07T03:52:40;7.63;;;6.85;;
75417;SDS011;63997;52.112;5.420;2023-05-07T03:55:07;12.98;;;8.20;;
75417;SDS011;63997;52.112;5.420;2023-05-07T03:57:33;8.18;;;7.45;;
75417;SDS011;63997;52.112;5.420;2023-05-07T04:00:00;6.53;;;5.93;;
75417;SDS011;63997;52.112;5.420;2023-05-07T04:02:27;7.90;;;7.10;;
75417;SDS011;63997;52.112;5.420;2023-05-07T04:04:53;7.35;;;6.75;;
75417;SDS011;63997;52.112;5.420;2023-05-07T04:07:20;8.88;;;7.82;;
75417;SDS011;63997;52.112;5.420;2023-05-07T04:09:47;7.57;;;6.90;;
75417;SDS011;63997;52.112;5.420;2023-05-07T04:12:13;9.73;;;7.70;;
75417;SDS011;63997;52.112;5.420;2023-05-07T04:14:39;9.97;;;7.93;;
75417;SDS011;63997;52.112;5.420;2023-05-07T04:17:06;9.45;;;7.75;;
75417;SDS011;63997;52.112;5.420;2023-05-07T04:19:33;8.60;;;7.70;;
75417;SDS011;63997;52.112;5.420;2023-05-07T04:21:59;9.23;;;7.72;;
75417;SDS011;63997;52.112;5.420;2023-05-07T04:24:26;8.73;;;7.82;;
75417;SDS011;63997;52.112;5.420;2023-05-07T04:26:52;9.03;;;7.37;;
75417;SDS011;63997;52.112;5.420;2023-05-07T04:29:19;8.05;;;7.25;;
75417;SDS011;63997;52.112;5.420;2023-05-07T04:31:45;9.38;;;7.18;;
75417;SDS011;63997;52.112;5.420;2023-05-07T04:34:12;10.18;;;7.95;;
75417;SDS011;63997;52.112;5.420;2023-05-07T04:36:38;8.23;;;7.35;;
75417;SDS011;63997;52.112;5.420;2023-05-07T04:39:05;9.00;;;7.57;;
75417;SDS011;63997;52.112;5.420;2023-05-07T04:41:32;9.57;;;7.30;;
75417;SDS011;63997;52.112;5.420;2023-05-07T04:43:59;9.23;;;7.60;;
75417;SDS011;63997;52.112;5.420;2023-05-07T04:46:25;9.85;;;7.78;;
75417;SDS011;63997;52.112;5.420;2023-05-07T04:48:52;10.80;;;8.38;;
75417;SDS011;63997;52.112;5.420;2023-05-07T04:51:18;9.73;;;8.13;;
75417;SDS011;63997;52.112;5.420;2023-05-07T04:53:45;9.43;;;8.35;;
75417;SDS011;63997;52.112;5.420;2023-05-07T04:56:11;11.38;;;8.70;;
75417;SDS011;63997;52.112;5.420;2023-05-07T04:58:37;10.70;;;9.00;;
75417;SDS011;63997;52.112;5.420;2023-05-07T05:01:04;13.98;;;9.45;;
75417;SDS011;63997;52.112;5.420;2023-05-07T05:03:31;10.63;;;9.07;;
75417;SDS011;63997;52.112;5.420;2023-05-07T05:05:58;12.68;;;8.77;;
75417;SDS011;63997;52.112;5.420;2023-05-07T05:08:26;11.27;;;8.50;;
75417;SDS011;63997;52.112;5.420;2023-05-07T05:10:52;12.65;;;8.73;;
75417;SDS011;63997;52.112;5.420;2023-05-07T05:13:19;11.02;;;9.02;;
75417;SDS011;63997;52.112;5.420;2023-05-07T05:15:45;11.57;;;8.80;;
75417;SDS011;63997;52.112;5.420;2023-05-07T05:18:12;12.02;;;8.95;;
75417;SDS011;63997;52.112;5.420;2023-05-07T05:20:38;10.95;;;9.65;;
75417;SDS011;63997;52.112;5.420;2023-05-07T05:23:05;11.27;;;8.82;;
75417;SDS011;63997;52.112;5.420;2023-05-07T05:25:31;13.88;;;8.85;;
75417;SDS011;63997;52.112;5.420;2023-05-07T05:27:58;11.00;;;9.47;;
75417;SDS011;63997;52.112;5.420;2023-05-07T05:30:24;13.07;;;9.38;;
75417;SDS011;63997;52.112;5.420;2023-05-07T05:32:51;11.50;;;9.35;;
75417;SDS011;63997;52.112;5.420;2023-05-07T05:35:17;11.73;;;8.68;;
75417;SDS011;63997;52.112;5.420;2023-05-07T05:37:44;13.63;;;10.20;;
75417;SDS011;63997;52.112;5.420;2023-05-07T05:40:10;13.70;;;9.63;;
75417;SDS011;63997;52.112;5.420;2023-05-07T05:42:37;15.57;;;9.27;;
75417;SDS011;63997;52.112;5.420;2023-05-07T05:45:04;11.13;;;9.20;;
75417;SDS011;63997;52.112;5.420;2023-05-07T05:47:31;10.77;;;9.50;;
75417;SDS011;63997;52.112;5.420;2023-05-07T05:49:57;11.63;;;10.00;;
75417;SDS011;63997;52.112;5.420;2023-05-07T05:52:23;14.80;;;9.33;;
75417;SDS011;63997;52.112;5.420;2023-05-07T05:54:50;13.77;;;10.00;;
75417;SDS011;63997;52.112;5.420;2023-05-07T05:57:16;12.13;;;9.75;;
75417;SDS011;63997;52.112;5.420;2023-05-07T05:59:43;15.88;;;10.38;;
75417;SDS011;63997;52.112;5.420;2023-05-07T06:02:10;16.05;;;10.52;;
75417;SDS011;63997;52.112;5.420;2023-05-07T06:04:36;13.90;;;10.10;;
75417;SDS011;63997;52.112;5.420;2023-05-07T06:07:03;14.13;;;10.88;;
75417;SDS011;63997;52.112;5.420;2023-05-07T06:09:29;13.02;;;10.18;;
75417;SDS011;63997;52.112;5.420;2023-05-07T06:11:56;14.48;;;10.27;;
75417;SDS011;63997;52.112;5.420;2023-05-07T06:14:25;13.48;;;10.35;;
75417;SDS011;63997;52.112;5.420;2023-05-07T06:16:52;11.50;;;9.70;;
75417;SDS011;63997;52.112;5.420;2023-05-07T06:19:18;14.32;;;10.45;;
75417;SDS011;63997;52.112;5.420;2023-05-07T06:21:49;16.45;;;10.98;;
75417;SDS011;63997;52.112;5.420;2023-05-07T06:24:16;12.00;;;10.18;;
75417;SDS011;63997;52.112;5.420;2023-05-07T06:26:42;13.18;;;10.27;;
75417;SDS011;63997;52.112;5.420;2023-05-07T06:29:08;14.07;;;10.43;;
75417;SDS011;63997;52.112;5.420;2023-05-07T06:31:35;14.55;;;10.88;;
75417;SDS011;63997;52.112;5.420;2023-05-07T06:34:01;13.57;;;10.18;;
75417;SDS011;63997;52.112;5.420;2023-05-07T06:36:28;16.25;;;11.63;;
75417;SDS011;63997;52.112;5.420;2023-05-07T06:38:55;17.20;;;11.32;;
75417;SDS011;63997;52.112;5.420;2023-05-07T06:41:21;14.77;;;11.07;;
75417;SDS011;63997;52.112;5.420;2023-05-07T06:43:48;15.50;;;11.38;;
75417;SDS011;63997;52.112;5.420;2023-05-07T06:46:14;18.30;;;11.73;;
75417;SDS011;63997;52.112;5.420;2023-05-07T06:48:41;17.73;;;11.82;;
75417;SDS011;63997;52.112;5.420;2023-05-07T06:51:07;16.60;;;11.80;;
75417;SDS011;63997;52.112;5.420;2023-05-07T06:53:34;14.37;;;11.40;;
75417;SDS011;63997;52.112;5.420;2023-05-07T06:56:01;15.80;;;11.13;;
75417;SDS011;63997;52.112;5.420;2023-05-07T06:58:28;15.13;;;12.27;;
75417;SDS011;63997;52.112;5.420;2023-05-07T07:00:54;18.23;;;11.80;;
75417;SDS011;63997;52.112;5.420;2023-05-07T07:03:21;14.30;;;12.13;;
75417;SDS011;63997;52.112;5.420;2023-05-07T07:05:47;15.47;;;11.80;;
75417;SDS011;63997;52.112;5.420;2023-05-07T07:08:13;15.75;;;11.18;;
75417;SDS011;63997;52.112;5.420;2023-05-07T07:10:40;16.58;;;11.50;;
75417;SDS011;63997;52.112;5.420;2023-05-07T07:13:07;14.73;;;11.65;;
75417;SDS011;63997;52.112;5.420;2023-05-07T07:15:33;16.83;;;12.30;;
75417;SDS011;63997;52.112;5.420;2023-05-07T07:17:59;12.43;;;11.17;;
75417;SDS011;63997;52.112;5.420;2023-05-07T07:20:26;14.55;;;11.30;;
75417;SDS011;63997;52.112;5.420;2023-05-07T07:22:52;14.00;;;12.30;;
75417;SDS011;63997;52.112;5.420;2023-05-07T07:25:19;16.05;;;11.52;;
75417;SDS011;63997;52.112;5.420;2023-05-07T07:27:45;13.75;;;11.02;;
75417;SDS011;63997;52.112;5.420;2023-05-07T07:30:12;14.40;;;10.97;;
75417;SDS011;63997;52.112;5.420;2023-05-07T07:32:38;14.15;;;10.38;;
75417;SDS011;63997;52.112;5.420;2023-05-07T07:35:05;13.77;;;12.07;;
75417;SDS011;63997;52.112;5.420;2023-05-07T07:37:32;13.95;;;11.50;;
75417;SDS011;63997;52.112;5.420;2023-05-07T07:39:58;12.52;;;10.82;;
75417;SDS011;63997;52.112;5.420;2023-05-07T07:42:26;16.40;;;11.00;;
75417;SDS011;63997;52.112;5.420;2023-05-07T07:44:53;13.55;;;11.35;;
75417;SDS011;63997;52.112;5.420;2023-05-07T07:47:19;14.43;;;10.52;;
75417;SDS011;63997;52.112;5.420;2023-05-07T07:49:46;15.15;;;10.85;;
75417;SDS011;63997;52.112;5.420;2023-05-07T07:52:12;15.13;;;11.43;;
75417;SDS011;63997;52.112;5.420;2023-05-07T07:54:38;12.37;;;11.00;;
75417;SDS011;63997;52.112;5.420;2023-05-07T07:57:05;14.40;;;11.00;;
75417;SDS011;63997;52.112;5.420;2023-05-07T07:59:31;14.95;;;10.93;;
75417;SDS011;63997;52.112;5.420;2023-05-07T08:01:57;13.57;;;10.73;;
75417;SDS011;63997;52.112;5.420;2023-05-07T08:04:24;13.63;;;11.05;;
75417;SDS011;63997;52.112;5.420;2023-05-07T08:06:50;12.73;;;11.43;;
75417;SDS011;63997;52.112;5.420;2023-05-07T08:09:17;14.88;;;10.80;;
75417;SDS011;63997;52.112;5.420;2023-05-07T08:11:43;12.48;;;10.65;;
75417;SDS011;63997;52.112;5.420;2023-05-07T08:14:10;14.88;;;11.38;;
75417;SDS011;63997;52.112;5.420;2023-05-07T08:16:37;12.02;;;10.27;;
75417;SDS011;63997;52.112;5.420;2023-05-07T08:19:03;17.00;;;12.50;;
75417;SDS011;63997;52.112;5.420;2023-05-07T08:21:30;13.52;;;10.90;;
75417;SDS011;63997;52.112;5.420;2023-05-07T08:23:59;19.92;;;11.57;;
75417;SDS011;63997;52.112;5.420;2023-05-07T08:26:26;12.68;;;11.27;;
75417;SDS011;63997;52.112;5.420;2023-05-07T08:28:52;15.35;;;11.20;;
75417;SDS011;63997;52.112;5.420;2023-05-07T08:31:18;15.17;;;11.77;;
75417;SDS011;63997;52.112;5.420;2023-05-07T08:33:45;15.63;;;12.10;;
75417;SDS011;63997;52.112;5.420;2023-05-07T08:36:11;17.90;;;12.02;;
75417;SDS011;63997;52.112;5.420;2023-05-07T08:38:38;18.77;;;12.85;;
75417;SDS011;63997;52.112;5.420;2023-05-07T08:41:06;16.02;;;11.88;;
75417;SDS011;63997;52.112;5.420;2023-05-07T08:43:36;16.60;;;12.30;;
75417;SDS011;63997;52.112;5.420;2023-05-07T08:46:04;17.67;;;13.10;;
75417;SDS011;63997;52.112;5.420;2023-05-07T08:48:34;15.60;;;12.20;;
75417;SDS011;63997;52.112;5.420;2023-05-07T08:51:01;17.13;;;13.15;;
75417;SDS011;63997;52.112;5.420;2023-05-07T08:53:28;17.38;;;13.00;;
75417;SDS011;63997;52.112;5.420;2023-05-07T08:55:55;15.47;;;12.57;;
75417;SDS011;63997;52.112;5.420;2023-05-07T08:58:22;18.55;;;14.20;;
75417;SDS011;63997;52.112;5.420;2023-05-07T09:00:48;15.63;;;12.63;;
75417;SDS011;63997;52.112;5.420;2023-05-07T09:03:15;19.00;;;14.68;;
75417;SDS011;63997;52.112;5.420;2023-05-07T09:05:42;17.48;;;12.77;;
75417;SDS011;63997;52.112;5.420;2023-05-07T09:08:10;18.07;;;13.57;;
75417;SDS011;63997;52.112;5.420;2023-05-07T09:10:40;19.35;;;13.63;;
75417;SDS011;63997;52.112;5.420;2023-05-07T09:13:07;18.63;;;13.40;;
75417;SDS011;63997;52.112;5.420;2023-05-07T09:15:34;18.08;;;13.75;;
75417;SDS011;63997;52.112;5.420;2023-05-07T09:18:00;16.00;;;12.75;;
75417;SDS011;63997;52.112;5.420;2023-05-07T09:20:29;17.83;;;12.60;;
75417;SDS011;63997;52.112;5.420;2023-05-07T09:22:56;17.10;;;12.40;;
75417;SDS011;63997;52.112;5.420;2023-05-07T09:25:29;14.38;;;11.50;;
75417;SDS011;63997;52.112;5.420;2023-05-07T09:27:57;15.80;;;12.10;;
75417;SDS011;63997;52.112;5.420;2023-05-07T09:30:27;15.73;;;12.02;;
75417;SDS011;63997;52.112;5.420;2023-05-07T09:33:00;16.50;;;11.30;;
75417;SDS011;63997;52.112;5.420;2023-05-07T09:35:29;14.00;;;11.50;;
75417;SDS011;63997;52.112;5.420;2023-05-07T09:37:57;16.00;;;11.75;;
75417;SDS011;63997;52.112;5.420;2023-05-07T09:40:27;15.20;;;12.52;;
75417;SDS011;63997;52.112;5.420;2023-05-07T09:42:55;14.93;;;12.27;;
75417;SDS011;63997;52.112;5.420;2023-05-07T09:45:22;15.07;;;12.50;;
75417;SDS011;63997;52.112;5.420;2023-05-07T09:47:53;16.75;;;12.65;;
75417;SDS011;63997;52.112;5.420;2023-05-07T09:50:28;15.93;;;13.25;;
75417;SDS011;63997;52.112;5.420;2023-05-07T09:52:56;14.98;;;13.30;;
75417;SDS011;63997;52.112;5.420;2023-05-07T09:55:23;16.33;;;12.55;;
75417;SDS011;63997;52.112;5.420;2023-05-07T09:57:50;18.13;;;13.60;;
75417;SDS011;63997;52.112;5.420;2023-05-07T10:00:18;14.93;;;12.40;;
75417;SDS011;63997;52.112;5.420;2023-05-07T10:02:51;18.80;;;14.38;;
75417;SDS011;63997;52.112;5.420;2023-05-07T10:05:19;15.57;;;13.05;;
75417;SDS011;63997;52.112;5.420;2023-05-07T10:07:48;18.58;;;13.93;;
75417;SDS011;63997;52.112;5.420;2023-05-07T10:10:15;15.93;;;13.00;;
75417;SDS011;63997;52.112;5.420;2023-05-07T10:12:43;20.20;;;13.70;;
75417;SDS011;63997;52.112;5.420;2023-05-07T10:15:11;17.88;;;13.40;;
75417;SDS011;63997;52.112;5.420;2023-05-07T10:17:39;16.83;;;13.07;;
75417;SDS011;63997;52.112;5.420;2023-05-07T10:20:06;16.35;;;13.18;;
75417;SDS011;63997;52.112;5.420;2023-05-07T10:22:38;15.27;;;13.67;;
75417;SDS011;63997;52.112;5.420;2023-05-07T10:25:09;16.92;;;12.93;;
75417;SDS011;63997;52.112;5.420;2023-05-07T10:27:45;18.50;;;12.85;;
75417;SDS011;63997;52.112;5.420;2023-05-07T10:33:01;16.58;;;12.85;;
75417;SDS011;63997;52.112;5.420;2023-05-07T10:35:36;19.60;;;13.23;;
75417;SDS011;63997;52.112;5.420;2023-05-07T10:38:06;19.25;;;13.27;;
75417;SDS011;63997;52.112;5.420;2023-05-07T10:40:33;32.17;;;13.77;;
75417;SDS011;63997;52.112;5.420;2023-05-07T10:43:01;18.30;;;12.65;;
75417;SDS011;63997;52.112;5.420;2023-05-07T10:45:34;15.40;;;12.00;;
75417;SDS011;63997;52.112;5.420;2023-05-07T10:48:16;18.20;;;12.23;;
75417;SDS011;63997;52.112;5.420;2023-05-07T10:50:46;15.90;;;12.65;;
75417;SDS011;63997;52.112;5.420;2023-05-07T10:55:48;15.13;;;12.82;;
75417;SDS011;63997;52.112;5.420;2023-05-07T10:58:26;15.93;;;11.95;;
75417;SDS011;63997;52.112;5.420;2023-05-07T11:01:01;15.97;;;12.13;;
75417;SDS011;63997;52.112;5.420;2023-05-07T11:03:28;15.25;;;11.30;;
75417;SDS011;63997;52.112;5.420;2023-05-07T11:06:14;14.63;;;11.93;;
75417;SDS011;63997;52.112;5.420;2023-05-07T11:08:52;15.82;;;12.40;;
75417;SDS011;63997;52.112;5.420;2023-05-07T11:11:19;16.58;;;12.75;;
75417;SDS011;63997;52.112;5.420;2023-05-07T11:13:48;15.80;;;12.47;;
75417;SDS011;63997;52.112;5.420;2023-05-07T11:16:19;18.42;;;12.57;;
75417;SDS011;63997;52.112;5.420;2023-05-07T11:18:47;15.80;;;12.52;;
75417;SDS011;63997;52.112;5.420;2023-05-07T11:21:31;16.27;;;12.82;;
75417;SDS011;63997;52.112;5.420;2023-05-07T11:24:01;16.17;;;12.73;;
75417;SDS011;63997;52.112;5.420;2023-05-07T11:26:52;14.40;;;11.87;;
75417;SDS011;63997;52.112;5.420;2023-05-07T11:29:17;16.08;;;12.43;;
75417;SDS011;63997;52.112;5.420;2023-05-07T11:31:48;12.48;;;11.18;;
75417;SDS011;63997;52.112;5.420;2023-05-07T11:34:20;16.67;;;12.70;;
75417;SDS011;63997;52.112;5.420;2023-05-07T11:36:47;16.02;;;12.75;;
75417;SDS011;63997;52.112;5.420;2023-05-07T11:39:28;14.97;;;12.40;;
75417;SDS011;63997;52.112;5.420;2023-05-07T11:41:57;14.05;;;11.95;;
75417;SDS011;63997;52.112;5.420;2023-05-07T11:44:24;15.20;;;12.25;;
75417;SDS011;63997;52.112;5.420;2023-05-07T11:46:50;14.18;;;12.65;;
75417;SDS011;63997;52.112;5.420;2023-05-07T11:49:17;14.35;;;12.85;;
75417;SDS011;63997;52.112;5.420;2023-05-07T11:51:44;16.57;;;11.90;;
75417;SDS011;63997;52.112;5.420;2023-05-07T11:54:14;15.10;;;12.70;;
75417;SDS011;63997;52.112;5.420;2023-05-07T11:56:43;15.75;;;12.43;;
75417;SDS011;63997;52.112;5.420;2023-05-07T11:59:11;17.10;;;12.95;;
75417;SDS011;63997;52.112;5.420;2023-05-07T12:01:37;15.40;;;13.18;;
75417;SDS011;63997;52.112;5.420;2023-05-07T12:04:04;15.70;;;13.47;;
75417;SDS011;63997;52.112;5.420;2023-05-07T12:06:35;16.65;;;13.07;;
75417;SDS011;63997;52.112;5.420;2023-05-07T12:09:03;22.52;;;13.85;;
75417;SDS011;63997;52.112;5.420;2023-05-07T12:11:30;15.02;;;12.57;;
75417;SDS011;63997;52.112;5.420;2023-05-07T12:13:57;18.70;;;12.80;;
75417;SDS011;63997;52.112;5.420;2023-05-07T12:16:25;17.30;;;12.70;;
75417;SDS011;63997;52.112;5.420;2023-05-07T12:18:52;17.98;;;13.23;;
75417;SDS011;63997;52.112;5.420;2023-05-07T12:21:21;15.27;;;12.45;;
75417;SDS011;63997;52.112;5.420;2023-05-07T12:23:48;13.15;;;11.65;;
75417;SDS011;63997;52.112;5.420;2023-05-07T12:26:14;14.38;;;11.70;;
75417;SDS011;63997;52.112;5.420;2023-05-07T12:28:40;16.73;;;13.50;;
75417;SDS011;63997;52.112;5.420;2023-05-07T12:31:07;15.05;;;12.18;;
75417;SDS011;63997;52.112;5.420;2023-05-07T12:33:34;15.75;;;12.23;;
75417;SDS011;63997;52.112;5.420;2023-05-07T12:36:05;15.30;;;12.52;;
75417;SDS011;63997;52.112;5.420;2023-05-07T12:38:39;15.65;;;12.32;;
75417;SDS011;63997;52.112;5.420;2023-05-07T12:41:08;14.23;;;12.10;;
75417;SDS011;63997;52.112;5.420;2023-05-07T12:43:35;16.27;;;11.32;;
75417;SDS011;63997;52.112;5.420;2023-05-07T12:46:05;13.43;;;10.65;;
75417;SDS011;63997;52.112;5.420;2023-05-07T12:48:33;13.18;;;9.73;;
75417;SDS011;63997;52.112;5.420;2023-05-07T12:51:02;12.45;;;9.82;;
75417;SDS011;63997;52.112;5.420;2023-05-07T12:53:29;10.33;;;9.10;;
75417;SDS011;63997;52.112;5.420;2023-05-07T12:55:57;12.95;;;8.65;;
75417;SDS011;63997;52.112;5.420;2023-05-07T12:58:28;10.32;;;8.05;;
75417;SDS011;63997;52.112;5.420;2023-05-07T13:00:57;10.50;;;8.93;;
75417;SDS011;63997;52.112;5.420;2023-05-07T13:03:30;12.70;;;9.40;;
75417;SDS011;63997;52.112;5.420;2023-05-07T13:06:00;11.77;;;8.60;;
75417;SDS011;63997;52.112;5.420;2023-05-07T13:08:30;11.90;;;9.20;;
75417;SDS011;63997;52.112;5.420;2023-05-07T13:10:59;11.70;;;9.32;;
75417;SDS011;63997;52.112;5.420;2023-05-07T13:13:34;7.93;;;6.93;;
75417;SDS011;63997;52.112;5.420;2023-05-07T13:16:02;11.68;;;7.55;;
75417;SDS011;63997;52.112;5.420;2023-05-07T13:18:29;10.53;;;8.00;;
75417;SDS011;63997;52.112;5.420;2023-05-07T13:20:56;9.73;;;8.45;;
75417;SDS011;63997;52.112;5.420;2023-05-07T13:23:23;9.98;;;8.98;;
75417;SDS011;63997;52.112;5.420;2023-05-07T13:25:49;10.20;;;8.57;;
75417;SDS011;63997;52.112;5.420;2023-05-07T13:28:16;11.80;;;8.90;;
75417;SDS011;63997;52.112;5.420;2023-05-07T13:30:43;10.50;;;8.93;;
75417;SDS011;63997;52.112;5.420;2023-05-07T13:33:09;10.95;;;8.98;;
75417;SDS011;63997;52.112;5.420;2023-05-07T13:35:36;10.65;;;8.55;;
75417;SDS011;63997;52.112;5.420;2023-05-07T13:38:02;12.52;;;9.40;;
75417;SDS011;63997;52.112;5.420;2023-05-07T13:40:28;11.23;;;7.78;;
75417;SDS011;63997;52.112;5.420;2023-05-07T13:42:56;12.83;;;8.10;;
75417;SDS011;63997;52.112;5.420;2023-05-07T13:45:24;12.48;;;9.68;;
75417;SDS011;63997;52.112;5.420;2023-05-07T13:47:55;10.85;;;9.75;;
75417;SDS011;63997;52.112;5.420;2023-05-07T13:50:22;12.27;;;9.30;;
75417;SDS011;63997;52.112;5.420;2023-05-07T13:52:49;12.23;;;9.88;;
75417;SDS011;63997;52.112;5.420;2023-05-07T13:55:18;11.33;;;9.73;;
75417;SDS011;63997;52.112;5.420;2023-05-07T13:57:46;14.98;;;10.63;;
75417;SDS011;63997;52.112;5.420;2023-05-07T14:00:13;14.25;;;12.52;;
75417;SDS011;63997;52.112;5.420;2023-05-07T14:02:41;14.10;;;11.98;;
75417;SDS011;63997;52.112;5.420;2023-05-07T14:05:08;16.15;;;12.23;;
75417;SDS011;63997;52.112;5.420;2023-05-07T14:07:35;15.30;;;11.63;;
75417;SDS011;63997;52.112;5.420;2023-05-07T14:10:02;16.15;;;11.63;;
75417;SDS011;63997;52.112;5.420;2023-05-07T14:12:29;15.82;;;12.02;;
75417;SDS011;63997;52.112;5.420;2023-05-07T14:14:55;16.35;;;12.50;;
75417;SDS011;63997;52.112;5.420;2023-05-07T14:17:22;15.02;;;12.20;;
75417;SDS011;63997;52.112;5.420;2023-05-07T14:19:51;15.07;;;12.70;;
75417;SDS011;63997;52.112;5.420;2023-05-07T14:22:20;15.27;;;12.27;;
75417;SDS011;63997;52.112;5.420;2023-05-07T14:24:48;16.58;;;12.50;;
75417;SDS011;63997;52.112;5.420;2023-05-07T14:27:35;14.38;;;11.70;;
75417;SDS011;63997;52.112;5.420;2023-05-07T14:30:02;16.23;;;11.73;;
75417;SDS011;63997;52.112;5.420;2023-05-07T14:32:28;14.63;;;11.23;;
75417;SDS011;63997;52.112;5.420;2023-05-07T14:34:55;14.05;;;12.20;;
75417;SDS011;63997;52.112;5.420;2023-05-07T14:37:21;15.65;;;11.65;;
75417;SDS011;63997;52.112;5.420;2023-05-07T14:39:48;14.35;;;11.73;;